sensor_id;sensor_type;location;lat;lon;timestamp;P1;durP1;ratioP1;P2;durP2;ratioP2
14592;SDS011;7383;52.354;9.756;2023-02-15T00:01:04;9.05;;;7.78;;
14592;SDS011;7383;52.354;9.756;2023-02-15T00:03:31;8.10;;;7.40;;
14592;SDS011;7383;52.354;9.756;2023-02-15T00:05:59;8.27;;;7.47;;
14592;SDS011;7383;52.354;9.756;2023-02-15T00:08:25;7.47;;;6.88;;
14592;SDS011;7383;52.354;9.756;2023-02-15T00:10:52;7.80;;;7.10;;
14592;SDS011;7383;52.354;9.756;2023-02-15T00:13:18;7.70;;;7.00;;
14592;SDS011;7383;52.354;9.756;2023-02-15T00:15:45;7.05;;;6.45;;
14592;SDS011;7383;52.354;9.756;2023-02-15T00:18:11;7.60;;;6.85;;
14592;SDS011;7383;52.354;9.756;2023-02-15T00:20:37;7.55;;;6.85;;
14592;SDS011;7383;52.354;9.756;2023-02-15T00:23:05;7.57;;;6.85;;
14592;SDS011;7383;52.354;9.756;2023-02-15T00:25:32;7.57;;;6.93;;
14592;SDS011;7383;52.354;9.756;2023-02-15T00:27:59;7.45;;;6.85;;
14592;SDS011;7383;52.354;9.756;2023-02-15T00:30:25;6.88;;;6.28;;
14592;SDS011;7383;52.354;9.756;2023-02-15T00:32:52;7.35;;;6.65;;
14592;SDS011;7383;52.354;9.756;2023-02-15T00:35:18;7.18;;;6.55;;
14592;SDS011;7383;52.354;9.756;2023-02-15T00:37:45;10.68;;;9.27;;
14592;SDS011;7383;52.354;9.756;2023-02-15T00:42:40;12.98;;;11.27;;
14592;SDS011;7383;52.354;9.756;2023-02-15T00:45:07;10.30;;;9.30;;
14592;SDS011;7383;52.354;9.756;2023-02-15T00:47:34;9.05;;;8.15;;
14592;SDS011;7383;52.354;9.756;2023-02-15T00:50:01;8.02;;;7.32;;
14592;SDS011;7383;52.354;9.756;2023-02-15T00:52:28;7.60;;;6.90;;
14592;SDS011;7383;52.354;9.756;2023-02-15T00:54:54;7.15;;;6.55;;
14592;SDS011;7383;52.354;9.756;2023-02-15T00:57:22;7.55;;;6.82;;
14592;SDS011;7383;52.354;9.756;2023-02-15T00:59:49;7.50;;;6.80;;
14592;SDS011;7383;52.354;9.756;2023-02-15T01:02:15;7.53;;;6.82;;
14592;SDS011;7383;52.354;9.756;2023-02-15T01:04:42;6.85;;;6.25;;
14592;SDS011;7383;52.354;9.756;2023-02-15T01:07:08;7.00;;;6.40;;
14592;SDS011;7383;52.354;9.756;2023-02-15T01:09:34;6.88;;;6.25;;
14592;SDS011;7383;52.354;9.756;2023-02-15T01:12:01;6.38;;;5.88;;
14592;SDS011;7383;52.354;9.756;2023-02-15T01:14:28;6.13;;;5.57;;
14592;SDS011;7383;52.354;9.756;2023-02-15T01:16:55;6.97;;;6.38;;
14592;SDS011;7383;52.354;9.756;2023-02-15T01:19:21;6.85;;;6.25;;
14592;SDS011;7383;52.354;9.756;2023-02-15T01:21:48;7.22;;;6.53;;
14592;SDS011;7383;52.354;9.756;2023-02-15T01:24:14;7.30;;;6.60;;
14592;SDS011;7383;52.354;9.756;2023-02-15T01:26:41;6.60;;;6.00;;
14592;SDS011;7383;52.354;9.756;2023-02-15T01:29:07;7.03;;;6.40;;
14592;SDS011;7383;52.354;9.756;2023-02-15T01:31:35;6.50;;;5.90;;
14592;SDS011;7383;52.354;9.756;2023-02-15T01:34:03;7.30;;;6.70;;
14592;SDS011;7383;52.354;9.756;2023-02-15T01:36:30;7.10;;;6.50;;
14592;SDS011;7383;52.354;9.756;2023-02-15T01:38:57;7.35;;;6.72;;
14592;SDS011;7383;52.354;9.756;2023-02-15T01:41:23;8.50;;;7.70;;
14592;SDS011;7383;52.354;9.756;2023-02-15T01:43:52;7.60;;;6.90;;
14592;SDS011;7383;52.354;9.756;2023-02-15T01:46:21;7.82;;;7.03;;
14592;SDS011;7383;52.354;9.756;2023-02-15T01:48:52;8.15;;;7.45;;
14592;SDS011;7383;52.354;9.756;2023-02-15T01:51:23;8.07;;;7.28;;
14592;SDS011;7383;52.354;9.756;2023-02-15T01:53:53;7.65;;;6.95;;
14592;SDS011;7383;52.354;9.756;2023-02-15T01:56:24;6.93;;;6.22;;
14592;SDS011;7383;52.354;9.756;2023-02-15T01:58:54;7.22;;;6.53;;
14592;SDS011;7383;52.354;9.756;2023-02-15T02:01:24;6.72;;;6.13;;
14592;SDS011;7383;52.354;9.756;2023-02-15T02:03:56;6.95;;;6.35;;
14592;SDS011;7383;52.354;9.756;2023-02-15T02:06:27;7.20;;;6.50;;
14592;SDS011;7383;52.354;9.756;2023-02-15T02:08:55;6.65;;;6.05;;
14592;SDS011;7383;52.354;9.756;2023-02-15T02:11:23;6.57;;;5.97;;
14592;SDS011;7383;52.354;9.756;2023-02-15T02:13:49;6.93;;;6.32;;
14592;SDS011;7383;52.354;9.756;2023-02-15T02:16:19;7.18;;;6.55;;
14592;SDS011;7383;52.354;9.756;2023-02-15T02:18:53;7.05;;;6.40;;
14592;SDS011;7383;52.354;9.756;2023-02-15T02:21:42;6.88;;;6.28;;
14592;SDS011;7383;52.354;9.756;2023-02-15T02:24:36;6.78;;;6.13;;
14592;SDS011;7383;52.354;9.756;2023-02-15T02:27:22;6.47;;;5.88;;
14592;SDS011;7383;52.354;9.756;2023-02-15T02:33:05;6.55;;;5.95;;
14592;SDS011;7383;52.354;9.756;2023-02-15T02:35:38;6.65;;;6.05;;
14592;SDS011;7383;52.354;9.756;2023-02-15T02:38:11;6.63;;;6.03;;
14592;SDS011;7383;52.354;9.756;2023-02-15T02:40:49;7.03;;;6.35;;
14592;SDS011;7383;52.354;9.756;2023-02-15T02:43:22;7.13;;;6.53;;
14592;SDS011;7383;52.354;9.756;2023-02-15T02:45:56;7.15;;;6.30;;
14592;SDS011;7383;52.354;9.756;2023-02-15T02:48:25;7.18;;;6.45;;
14592;SDS011;7383;52.354;9.756;2023-02-15T02:50:54;6.95;;;6.25;;
14592;SDS011;7383;52.354;9.756;2023-02-15T02:53:20;7.15;;;6.45;;
14592;SDS011;7383;52.354;9.756;2023-02-15T02:55:48;6.80;;;6.20;;
14592;SDS011;7383;52.354;9.756;2023-02-15T02:58:19;7.60;;;6.90;;
14592;SDS011;7383;52.354;9.756;2023-02-15T03:00:52;7.22;;;6.53;;
14592;SDS011;7383;52.354;9.756;2023-02-15T03:03:22;7.68;;;6.97;;
14592;SDS011;7383;52.354;9.756;2023-02-15T03:05:53;7.60;;;6.95;;
14592;SDS011;7383;52.354;9.756;2023-02-15T03:08:24;7.32;;;6.63;;
14592;SDS011;7383;52.354;9.756;2023-02-15T03:10:57;7.55;;;6.85;;
14592;SDS011;7383;52.354;9.756;2023-02-15T03:13:25;7.55;;;6.85;;
14592;SDS011;7383;52.354;9.756;2023-02-15T03:15:53;8.02;;;7.30;;
14592;SDS011;7383;52.354;9.756;2023-02-15T03:18:42;8.65;;;7.78;;
14592;SDS011;7383;52.354;9.756;2023-02-15T03:21:17;8.82;;;7.93;;
14592;SDS011;7383;52.354;9.756;2023-02-15T03:23:48;8.35;;;7.50;;
14592;SDS011;7383;52.354;9.756;2023-02-15T03:26:18;8.63;;;7.72;;
14592;SDS011;7383;52.354;9.756;2023-02-15T03:28:47;8.00;;;7.20;;
14592;SDS011;7383;52.354;9.756;2023-02-15T03:31:17;8.07;;;7.28;;
14592;SDS011;7383;52.354;9.756;2023-02-15T03:33:49;8.52;;;7.65;;
14592;SDS011;7383;52.354;9.756;2023-02-15T03:36:18;7.95;;;7.25;;
14592;SDS011;7383;52.354;9.756;2023-02-15T03:38:49;8.48;;;7.57;;
14592;SDS011;7383;52.354;9.756;2023-02-15T03:41:24;7.75;;;7.03;;
14592;SDS011;7383;52.354;9.756;2023-02-15T03:43:56;8.13;;;7.32;;
14592;SDS011;7383;52.354;9.756;2023-02-15T03:46:29;7.57;;;6.88;;
14592;SDS011;7383;52.354;9.756;2023-02-15T03:49:02;8.57;;;7.47;;
14592;SDS011;7383;52.354;9.756;2023-02-15T03:51:32;7.95;;;7.15;;
14592;SDS011;7383;52.354;9.756;2023-02-15T03:54:00;7.50;;;6.80;;
14592;SDS011;7383;52.354;9.756;2023-02-15T03:56:30;7.65;;;6.95;;
14592;SDS011;7383;52.354;9.756;2023-02-15T03:58:56;7.72;;;7.00;;
14592;SDS011;7383;52.354;9.756;2023-02-15T04:01:44;8.38;;;7.57;;
14592;SDS011;7383;52.354;9.756;2023-02-15T04:04:26;8.35;;;7.55;;
14592;SDS011;7383;52.354;9.756;2023-02-15T04:06:59;8.25;;;7.45;;
14592;SDS011;7383;52.354;9.756;2023-02-15T04:09:25;8.05;;;7.25;;
14592;SDS011;7383;52.354;9.756;2023-02-15T04:12:09;8.27;;;7.38;;
14592;SDS011;7383;52.354;9.756;2023-02-15T04:14:36;7.78;;;7.07;;
14592;SDS011;7383;52.354;9.756;2023-02-15T04:17:20;7.68;;;6.97;;
14592;SDS011;7383;52.354;9.756;2023-02-15T04:19:48;8.52;;;7.45;;
14592;SDS011;7383;52.354;9.756;2023-02-15T04:22:32;7.72;;;7.03;;
14592;SDS011;7383;52.354;9.756;2023-02-15T04:25:16;7.35;;;6.65;;
14592;SDS011;7383;52.354;9.756;2023-02-15T04:27:43;7.43;;;6.82;;
14592;SDS011;7383;52.354;9.756;2023-02-15T04:30:13;8.20;;;7.40;;
14592;SDS011;7383;52.354;9.756;2023-02-15T04:32:40;7.95;;;7.15;;
14592;SDS011;7383;52.354;9.756;2023-02-15T04:35:09;8.25;;;7.45;;
14592;SDS011;7383;52.354;9.756;2023-02-15T04:37:36;7.50;;;6.80;;
14592;SDS011;7383;52.354;9.756;2023-02-15T04:40:03;10.13;;;8.85;;
14592;SDS011;7383;52.354;9.756;2023-02-15T04:42:30;9.32;;;8.07;;
14592;SDS011;7383;52.354;9.756;2023-02-15T04:44:56;9.15;;;8.25;;
14592;SDS011;7383;52.354;9.756;2023-02-15T04:47:23;8.60;;;7.70;;
14592;SDS011;7383;52.354;9.756;2023-02-15T04:49:50;9.27;;;8.38;;
14592;SDS011;7383;52.354;9.756;2023-02-15T04:52:17;9.82;;;8.75;;
14592;SDS011;7383;52.354;9.756;2023-02-15T04:54:44;10.18;;;9.18;;
14592;SDS011;7383;52.354;9.756;2023-02-15T04:57:11;9.50;;;8.50;;
14592;SDS011;7383;52.354;9.756;2023-02-15T04:59:38;8.95;;;8.02;;
14592;SDS011;7383;52.354;9.756;2023-02-15T05:02:04;8.52;;;7.72;;
14592;SDS011;7383;52.354;9.756;2023-02-15T05:04:31;8.45;;;7.65;;
14592;SDS011;7383;52.354;9.756;2023-02-15T05:06:57;8.63;;;7.78;;
14592;SDS011;7383;52.354;9.756;2023-02-15T05:09:25;8.70;;;7.80;;
14592;SDS011;7383;52.354;9.756;2023-02-15T05:11:51;9.23;;;7.68;;
14592;SDS011;7383;52.354;9.756;2023-02-15T05:14:18;8.43;;;7.63;;
14592;SDS011;7383;52.354;9.756;2023-02-15T05:16:44;8.32;;;7.53;;
14592;SDS011;7383;52.354;9.756;2023-02-15T05:19:11;8.40;;;7.60;;
14592;SDS011;7383;52.354;9.756;2023-02-15T05:21:37;9.20;;;8.30;;
14592;SDS011;7383;52.354;9.756;2023-02-15T05:24:04;8.82;;;8.02;;
14592;SDS011;7383;52.354;9.756;2023-02-15T05:26:52;9.35;;;8.35;;
14592;SDS011;7383;52.354;9.756;2023-02-15T05:29:36;8.88;;;8.02;;
14592;SDS011;7383;52.354;9.756;2023-02-15T05:32:03;9.43;;;8.32;;
14592;SDS011;7383;52.354;9.756;2023-02-15T05:34:29;9.65;;;8.65;;
14592;SDS011;7383;52.354;9.756;2023-02-15T05:36:56;9.27;;;8.38;;
14592;SDS011;7383;52.354;9.756;2023-02-15T05:39:22;10.13;;;9.10;;
14592;SDS011;7383;52.354;9.756;2023-02-15T05:41:49;8.80;;;7.93;;
14592;SDS011;7383;52.354;9.756;2023-02-15T05:44:16;9.80;;;8.90;;
14592;SDS011;7383;52.354;9.756;2023-02-15T05:46:43;9.07;;;8.23;;
14592;SDS011;7383;52.354;9.756;2023-02-15T05:49:09;10.43;;;9.43;;
14592;SDS011;7383;52.354;9.756;2023-02-15T05:51:36;10.43;;;9.43;;
14592;SDS011;7383;52.354;9.756;2023-02-15T05:54:02;9.65;;;8.73;;
14592;SDS011;7383;52.354;9.756;2023-02-15T05:56:29;9.02;;;8.13;;
14592;SDS011;7383;52.354;9.756;2023-02-15T05:58:55;10.18;;;9.00;;
14592;SDS011;7383;52.354;9.756;2023-02-15T06:01:23;9.80;;;8.85;;
14592;SDS011;7383;52.354;9.756;2023-02-15T06:03:49;10.60;;;9.48;;
14592;SDS011;7383;52.354;9.756;2023-02-15T06:06:16;10.27;;;9.15;;
14592;SDS011;7383;52.354;9.756;2023-02-15T06:08:43;11.18;;;9.95;;
14592;SDS011;7383;52.354;9.756;2023-02-15T06:11:09;11.13;;;9.77;;
14592;SDS011;7383;52.354;9.756;2023-02-15T06:13:36;11.13;;;10.02;;
14592;SDS011;7383;52.354;9.756;2023-02-15T06:16:02;11.20;;;10.00;;
14592;SDS011;7383;52.354;9.756;2023-02-15T06:18:31;10.77;;;9.68;;
14592;SDS011;7383;52.354;9.756;2023-02-15T06:20:57;10.65;;;9.55;;
14592;SDS011;7383;52.354;9.756;2023-02-15T06:23:24;10.85;;;9.82;;
14592;SDS011;7383;52.354;9.756;2023-02-15T06:25:50;11.18;;;10.00;;
14592;SDS011;7383;52.354;9.756;2023-02-15T06:28:16;10.52;;;9.48;;
14592;SDS011;7383;52.354;9.756;2023-02-15T06:30:43;11.98;;;10.40;;
14592;SDS011;7383;52.354;9.756;2023-02-15T06:33:09;11.30;;;10.10;;
14592;SDS011;7383;52.354;9.756;2023-02-15T06:35:37;10.98;;;9.38;;
14592;SDS011;7383;52.354;9.756;2023-02-15T06:38:03;10.45;;;9.30;;
14592;SDS011;7383;52.354;9.756;2023-02-15T06:40:31;13.75;;;12.45;;
14592;SDS011;7383;52.354;9.756;2023-02-15T06:42:58;11.20;;;10.05;;
14592;SDS011;7383;52.354;9.756;2023-02-15T06:45:24;13.30;;;12.10;;
14592;SDS011;7383;52.354;9.756;2023-02-15T06:47:50;11.00;;;9.88;;
14592;SDS011;7383;52.354;9.756;2023-02-15T06:50:17;14.20;;;12.90;;
14592;SDS011;7383;52.354;9.756;2023-02-15T06:52:45;12.45;;;11.15;;
14592;SDS011;7383;52.354;9.756;2023-02-15T06:55:12;11.20;;;10.15;;
14592;SDS011;7383;52.354;9.756;2023-02-15T06:57:38;10.65;;;9.55;;
14592;SDS011;7383;52.354;9.756;2023-02-15T07:00:05;10.70;;;9.60;;
14592;SDS011;7383;52.354;9.756;2023-02-15T07:02:33;11.82;;;10.38;;
14592;SDS011;7383;52.354;9.756;2023-02-15T07:04:59;10.98;;;9.50;;
14592;SDS011;7383;52.354;9.756;2023-02-15T07:07:25;11.43;;;10.23;;
14592;SDS011;7383;52.354;9.756;2023-02-15T07:09:53;12.93;;;11.27;;
14592;SDS011;7383;52.354;9.756;2023-02-15T07:12:20;14.05;;;11.57;;
14592;SDS011;7383;52.354;9.756;2023-02-15T07:15:04;13.02;;;11.63;;
14592;SDS011;7383;52.354;9.756;2023-02-15T07:17:32;11.57;;;10.32;;
14592;SDS011;7383;52.354;9.756;2023-02-15T07:19:59;15.10;;;13.60;;
14592;SDS011;7383;52.354;9.756;2023-02-15T07:22:25;13.40;;;11.98;;
14592;SDS011;7383;52.354;9.756;2023-02-15T07:24:53;13.32;;;10.95;;
14592;SDS011;7383;52.354;9.756;2023-02-15T07:27:20;13.98;;;11.57;;
14592;SDS011;7383;52.354;9.756;2023-02-15T07:29:46;11.80;;;10.60;;
14592;SDS011;7383;52.354;9.756;2023-02-15T07:32:13;11.07;;;9.93;;
14592;SDS011;7383;52.354;9.756;2023-02-15T07:34:39;11.90;;;10.60;;
14592;SDS011;7383;52.354;9.756;2023-02-15T07:37:06;11.52;;;10.32;;
14592;SDS011;7383;52.354;9.756;2023-02-15T07:39:32;11.75;;;10.57;;
14592;SDS011;7383;52.354;9.756;2023-02-15T07:42:00;12.20;;;10.65;;
14592;SDS011;7383;52.354;9.756;2023-02-15T07:44:27;14.93;;;13.52;;
14592;SDS011;7383;52.354;9.756;2023-02-15T07:46:53;12.63;;;10.93;;
14592;SDS011;7383;52.354;9.756;2023-02-15T07:49:19;11.35;;;10.10;;
14592;SDS011;7383;52.354;9.756;2023-02-15T07:51:46;10.65;;;9.55;;
14592;SDS011;7383;52.354;9.756;2023-02-15T07:54:12;10.43;;;9.23;;
14592;SDS011;7383;52.354;9.756;2023-02-15T07:56:39;10.27;;;9.23;;
14592;SDS011;7383;52.354;9.756;2023-02-15T07:59:07;11.75;;;10.52;;
14592;SDS011;7383;52.354;9.756;2023-02-15T08:01:34;14.85;;;13.45;;
14592;SDS011;7383;52.354;9.756;2023-02-15T08:04:02;12.05;;;10.80;;
14592;SDS011;7383;52.354;9.756;2023-02-15T08:06:31;12.38;;;10.18;;
14592;SDS011;7383;52.354;9.756;2023-02-15T08:08:59;12.30;;;11.00;;
14592;SDS011;7383;52.354;9.756;2023-02-15T08:11:26;12.05;;;10.63;;
14592;SDS011;7383;52.354;9.756;2023-02-15T08:14:07;11.90;;;10.63;;
14592;SDS011;7383;52.354;9.756;2023-02-15T08:17:04;11.57;;;10.38;;
14592;SDS011;7383;52.354;9.756;2023-02-15T08:19:31;11.93;;;10.52;;
14592;SDS011;7383;52.354;9.756;2023-02-15T08:22:00;12.00;;;10.70;;
14592;SDS011;7383;52.354;9.756;2023-02-15T08:24:28;11.38;;;9.95;;
14592;SDS011;7383;52.354;9.756;2023-02-15T08:26:56;10.90;;;9.80;;
14592;SDS011;7383;52.354;9.756;2023-02-15T08:29:25;11.07;;;9.95;;
14592;SDS011;7383;52.354;9.756;2023-02-15T08:31:54;11.45;;;10.25;;
14592;SDS011;7383;52.354;9.756;2023-02-15T08:34:23;13.00;;;10.57;;
14592;SDS011;7383;52.354;9.756;2023-02-15T08:36:50;11.95;;;10.75;;
14592;SDS011;7383;52.354;9.756;2023-02-15T08:39:17;13.70;;;12.35;;
14592;SDS011;7383;52.354;9.756;2023-02-15T08:41:44;11.93;;;10.73;;
14592;SDS011;7383;52.354;9.756;2023-02-15T08:44:11;14.10;;;11.40;;
14592;SDS011;7383;52.354;9.756;2023-02-15T08:46:40;12.88;;;11.25;;
14592;SDS011;7383;52.354;9.756;2023-02-15T08:49:08;12.48;;;10.98;;
14592;SDS011;7383;52.354;9.756;2023-02-15T08:51:36;12.90;;;11.27;;
14592;SDS011;7383;52.354;9.756;2023-02-15T08:54:04;11.80;;;10.52;;
14592;SDS011;7383;52.354;9.756;2023-02-15T08:56:33;12.95;;;11.02;;
14592;SDS011;7383;52.354;9.756;2023-02-15T08:59:00;10.63;;;9.48;;
14592;SDS011;7383;52.354;9.756;2023-02-15T09:01:28;10.90;;;9.68;;
14592;SDS011;7383;52.354;9.756;2023-02-15T09:03:57;11.75;;;10.50;;
14592;SDS011;7383;52.354;9.756;2023-02-15T09:06:25;13.45;;;11.57;;
14592;SDS011;7383;52.354;9.756;2023-02-15T09:08:52;12.40;;;11.10;;
14592;SDS011;7383;52.354;9.756;2023-02-15T09:11:19;12.02;;;10.65;;
14592;SDS011;7383;52.354;9.756;2023-02-15T09:13:49;12.52;;;11.13;;
14592;SDS011;7383;52.354;9.756;2023-02-15T09:16:17;12.13;;;10.93;;
14592;SDS011;7383;52.354;9.756;2023-02-15T09:18:43;12.00;;;10.80;;
14592;SDS011;7383;52.354;9.756;2023-02-15T09:21:12;11.60;;;10.40;;
14592;SDS011;7383;52.354;9.756;2023-02-15T09:23:40;12.77;;;10.90;;
14592;SDS011;7383;52.354;9.756;2023-02-15T09:26:08;11.25;;;10.05;;
14592;SDS011;7383;52.354;9.756;2023-02-15T09:28:36;10.50;;;9.38;;
14592;SDS011;7383;52.354;9.756;2023-02-15T09:31:06;10.68;;;9.52;;
14592;SDS011;7383;52.354;9.756;2023-02-15T09:33:34;10.88;;;9.40;;
14592;SDS011;7383;52.354;9.756;2023-02-15T09:36:02;11.18;;;10.07;;
14592;SDS011;7383;52.354;9.756;2023-02-15T09:38:30;10.32;;;8.88;;
14592;SDS011;7383;52.354;9.756;2023-02-15T09:41:00;10.40;;;9.40;;
14592;SDS011;7383;52.354;9.756;2023-02-15T09:43:37;10.43;;;9.30;;
14592;SDS011;7383;52.354;9.756;2023-02-15T09:46:13;9.48;;;8.48;;
14592;SDS011;7383;52.354;9.756;2023-02-15T09:48:51;11.45;;;10.25;;
14592;SDS011;7383;52.354;9.756;2023-02-15T09:51:31;10.32;;;9.32;;
14592;SDS011;7383;52.354;9.756;2023-02-15T09:54:15;11.02;;;9.93;;
14592;SDS011;7383;52.354;9.756;2023-02-15T09:56:55;11.02;;;9.45;;
14592;SDS011;7383;52.354;9.756;2023-02-15T09:59:27;11.32;;;10.20;;
14592;SDS011;7383;52.354;9.756;2023-02-15T10:02:04;11.70;;;10.50;;
14592;SDS011;7383;52.354;9.756;2023-02-15T10:04:44;11.68;;;10.45;;
14592;SDS011;7383;52.354;9.756;2023-02-15T10:07:24;11.90;;;10.65;;
14592;SDS011;7383;52.354;9.756;2023-02-15T10:10:08;11.77;;;10.57;;
14592;SDS011;7383;52.354;9.756;2023-02-15T10:12:49;12.13;;;10.70;;
14592;SDS011;7383;52.354;9.756;2023-02-15T10:15:24;12.15;;;10.30;;
14592;SDS011;7383;52.354;9.756;2023-02-15T10:18:04;10.63;;;9.63;;
14592;SDS011;7383;52.354;9.756;2023-02-15T10:20:38;11.75;;;10.50;;
14592;SDS011;7383;52.354;9.756;2023-02-15T10:23:17;12.40;;;11.10;;
14592;SDS011;7383;52.354;9.756;2023-02-15T10:25:55;12.80;;;10.95;;
14592;SDS011;7383;52.354;9.756;2023-02-15T10:28:28;11.55;;;10.30;;
14592;SDS011;7383;52.354;9.756;2023-02-15T10:31:02;11.30;;;10.07;;
14592;SDS011;7383;52.354;9.756;2023-02-15T10:33:39;10.65;;;9.55;;
14592;SDS011;7383;52.354;9.756;2023-02-15T10:36:11;11.32;;;10.23;;
14592;SDS011;7383;52.354;9.756;2023-02-15T10:38:50;10.70;;;9.60;;
14592;SDS011;7383;52.354;9.756;2023-02-15T10:41:29;10.82;;;9.68;;
14592;SDS011;7383;52.354;9.756;2023-02-15T10:44:13;10.35;;;9.27;;
14592;SDS011;7383;52.354;9.756;2023-02-15T10:47:12;12.73;;;11.52;;
14592;SDS011;7383;52.354;9.756;2023-02-15T10:49:57;12.82;;;11.63;;
14592;SDS011;7383;52.354;9.756;2023-02-15T10:52:39;11.43;;;10.32;;
14592;SDS011;7383;52.354;9.756;2023-02-15T10:55:21;11.55;;;10.45;;
14592;SDS011;7383;52.354;9.756;2023-02-15T10:58:01;11.02;;;9.70;;
14592;SDS011;7383;52.354;9.756;2023-02-15T11:00:34;10.07;;;9.07;;
14592;SDS011;7383;52.354;9.756;2023-02-15T11:06:12;10.75;;;9.65;;
14592;SDS011;7383;52.354;9.756;2023-02-15T11:08:42;9.50;;;8.52;;
14592;SDS011;7383;52.354;9.756;2023-02-15T11:11:12;9.50;;;8.43;;
14592;SDS011;7383;52.354;9.756;2023-02-15T11:13:47;11.25;;;10.10;;
14592;SDS011;7383;52.354;9.756;2023-02-15T11:16:17;11.85;;;9.57;;
14592;SDS011;7383;52.354;9.756;2023-02-15T11:18:50;10.95;;;9.85;;
14592;SDS011;7383;52.354;9.756;2023-02-15T11:21:21;11.18;;;10.02;;
14592;SDS011;7383;52.354;9.756;2023-02-15T11:23:50;9.65;;;8.57;;
14592;SDS011;7383;52.354;9.756;2023-02-15T11:26:19;10.63;;;9.52;;
14592;SDS011;7383;52.354;9.756;2023-02-15T11:28:52;10.02;;;9.00;;
14592;SDS011;7383;52.354;9.756;2023-02-15T11:31:23;9.98;;;8.98;;
14592;SDS011;7383;52.354;9.756;2023-02-15T11:33:52;10.10;;;9.13;;
14592;SDS011;7383;52.354;9.756;2023-02-15T11:36:24;9.90;;;9.00;;
14592;SDS011;7383;52.354;9.756;2023-02-15T11:38:56;9.38;;;8.40;;
14592;SDS011;7383;52.354;9.756;2023-02-15T11:41:27;9.88;;;8.88;;
14592;SDS011;7383;52.354;9.756;2023-02-15T11:43:57;9.75;;;8.85;;
14592;SDS011;7383;52.354;9.756;2023-02-15T11:46:30;9.38;;;8.48;;
14592;SDS011;7383;52.354;9.756;2023-02-15T11:48:57;8.20;;;7.43;;
14592;SDS011;7383;52.354;9.756;2023-02-15T11:51:24;10.85;;;9.95;;
14592;SDS011;7383;52.354;9.756;2023-02-15T11:53:53;9.40;;;8.60;;
14592;SDS011;7383;52.354;9.756;2023-02-15T11:56:21;8.80;;;8.00;;
14592;SDS011;7383;52.354;9.756;2023-02-15T11:58:51;8.88;;;8.02;;
14592;SDS011;7383;52.354;9.756;2023-02-15T12:01:24;8.00;;;7.30;;
14592;SDS011;7383;52.354;9.756;2023-02-15T12:03:57;8.00;;;7.30;;
14592;SDS011;7383;52.354;9.756;2023-02-15T12:06:28;7.55;;;6.95;;
14592;SDS011;7383;52.354;9.756;2023-02-15T12:08:59;8.25;;;7.55;;
14592;SDS011;7383;52.354;9.756;2023-02-15T12:11:32;8.27;;;7.57;;
14592;SDS011;7383;52.354;9.756;2023-02-15T12:14:01;7.95;;;7.35;;
14592;SDS011;7383;52.354;9.756;2023-02-15T12:16:32;6.93;;;6.43;;
14592;SDS011;7383;52.354;9.756;2023-02-15T12:19:10;6.95;;;6.45;;
14592;SDS011;7383;52.354;9.756;2023-02-15T12:21:49;7.75;;;7.10;;
14592;SDS011;7383;52.354;9.756;2023-02-15T12:24:17;7.28;;;6.75;;
14592;SDS011;7383;52.354;9.756;2023-02-15T12:26:55;6.63;;;6.13;;
14592;SDS011;7383;52.354;9.756;2023-02-15T12:29:24;7.68;;;7.07;;
14592;SDS011;7383;52.354;9.756;2023-02-15T12:31:54;7.68;;;7.07;;
14592;SDS011;7383;52.354;9.756;2023-02-15T12:34:22;5.68;;;5.28;;
14592;SDS011;7383;52.354;9.756;2023-02-15T12:36:51;7.20;;;6.70;;
14592;SDS011;7383;52.354;9.756;2023-02-15T12:39:23;6.20;;;5.80;;
14592;SDS011;7383;52.354;9.756;2023-02-15T12:42:02;6.35;;;5.85;;
14592;SDS011;7383;52.354;9.756;2023-02-15T12:44:32;6.88;;;6.28;;
14592;SDS011;7383;52.354;9.756;2023-02-15T12:47:02;6.75;;;6.25;;
14592;SDS011;7383;52.354;9.756;2023-02-15T12:49:30;6.60;;;6.10;;
14592;SDS011;7383;52.354;9.756;2023-02-15T12:51:59;7.15;;;6.65;;
14592;SDS011;7383;52.354;9.756;2023-02-15T12:54:31;6.85;;;6.35;;
14592;SDS011;7383;52.354;9.756;2023-02-15T12:57:12;5.80;;;5.40;;
14592;SDS011;7383;52.354;9.756;2023-02-15T12:59:47;6.60;;;6.10;;
14592;SDS011;7383;52.354;9.756;2023-02-15T13:02:18;6.75;;;6.25;;
14592;SDS011;7383;52.354;9.756;2023-02-15T13:04:51;6.63;;;6.13;;
14592;SDS011;7383;52.354;9.756;2023-02-15T13:07:19;6.80;;;6.30;;
14592;SDS011;7383;52.354;9.756;2023-02-15T13:09:46;7.50;;;6.90;;
14592;SDS011;7383;52.354;9.756;2023-02-15T13:12:20;6.65;;;6.15;;
14592;SDS011;7383;52.354;9.756;2023-02-15T13:14:51;7.55;;;7.03;;
14592;SDS011;7383;52.354;9.756;2023-02-15T13:17:21;7.20;;;6.70;;
14592;SDS011;7383;52.354;9.756;2023-02-15T13:20:00;8.02;;;7.45;;
14592;SDS011;7383;52.354;9.756;2023-02-15T13:22:31;7.43;;;6.82;;
14592;SDS011;7383;52.354;9.756;2023-02-15T13:25:04;7.18;;;6.63;;
14592;SDS011;7383;52.354;9.756;2023-02-15T13:27:39;7.57;;;6.95;;
14592;SDS011;7383;52.354;9.756;2023-02-15T13:30:12;7.57;;;6.97;;
14592;SDS011;7383;52.354;9.756;2023-02-15T13:32:50;7.50;;;6.93;;
14592;SDS011;7383;52.354;9.756;2023-02-15T13:35:21;7.55;;;6.95;;
14592;SDS011;7383;52.354;9.756;2023-02-15T13:38:25;7.78;;;7.18;;
14592;SDS011;7383;52.354;9.756;2023-02-15T13:45:47;8.23;;;7.38;;
14592;SDS011;7383;52.354;9.756;2023-02-15T14:00:56;8.57;;;7.78;;
14592;SDS011;7383;52.354;9.756;2023-02-15T14:06:28;9.05;;;8.20;;
14592;SDS011;7383;52.354;9.756;2023-02-15T14:09:24;9.00;;;8.20;;
14592;SDS011;7383;52.354;9.756;2023-02-15T14:12:29;8.98;;;8.18;;
14592;SDS011;7383;52.354;9.756;2023-02-15T14:15:20;8.80;;;8.00;;
14592;SDS011;7383;52.354;9.756;2023-02-15T14:17:58;8.45;;;7.75;;
14592;SDS011;7383;52.354;9.756;2023-02-15T14:20:39;9.02;;;8.23;;
14592;SDS011;7383;52.354;9.756;2023-02-15T14:23:17;9.13;;;8.32;;
14592;SDS011;7383;52.354;9.756;2023-02-15T14:25:56;8.85;;;8.05;;
14592;SDS011;7383;52.354;9.756;2023-02-15T14:28:28;8.82;;;8.10;;
14592;SDS011;7383;52.354;9.756;2023-02-15T14:31:00;8.90;;;8.10;;
14592;SDS011;7383;52.354;9.756;2023-02-15T14:33:33;8.32;;;7.63;;
14592;SDS011;7383;52.354;9.756;2023-02-15T14:36:05;8.60;;;7.90;;
14592;SDS011;7383;52.354;9.756;2023-02-15T14:38:44;9.13;;;8.23;;
14592;SDS011;7383;52.354;9.756;2023-02-15T14:41:21;9.43;;;8.63;;
14592;SDS011;7383;52.354;9.756;2023-02-15T14:43:52;10.35;;;9.38;;
14592;SDS011;7383;52.354;9.756;2023-02-15T14:46:27;9.82;;;8.93;;
14592;SDS011;7383;52.354;9.756;2023-02-15T14:49:05;9.55;;;8.65;;
14592;SDS011;7383;52.354;9.756;2023-02-15T14:54:52;9.80;;;8.90;;
14592;SDS011;7383;52.354;9.756;2023-02-15T14:57:22;10.23;;;9.23;;
14592;SDS011;7383;52.354;9.756;2023-02-15T14:59:56;9.90;;;8.93;;
14592;SDS011;7383;52.354;9.756;2023-02-15T15:02:26;9.43;;;8.63;;
14592;SDS011;7383;52.354;9.756;2023-02-15T15:04:58;9.52;;;8.73;;
14592;SDS011;7383;52.354;9.756;2023-02-15T15:07:35;10.18;;;9.18;;
14592;SDS011;7383;52.354;9.756;2023-02-15T15:10:05;9.65;;;8.75;;
14592;SDS011;7383;52.354;9.756;2023-02-15T15:12:54;9.50;;;8.55;;
14592;SDS011;7383;52.354;9.756;2023-02-15T15:15:32;9.02;;;8.23;;
14592;SDS011;7383;52.354;9.756;2023-02-15T15:18:00;9.90;;;9.00;;
14592;SDS011;7383;52.354;9.756;2023-02-15T15:23:38;10.02;;;9.07;;
14592;SDS011;7383;52.354;9.756;2023-02-15T15:26:28;9.77;;;8.88;;
14592;SDS011;7383;52.354;9.756;2023-02-15T15:29:03;9.60;;;8.70;;
14592;SDS011;7383;52.354;9.756;2023-02-15T15:31:36;9.00;;;8.20;;
14592;SDS011;7383;52.354;9.756;2023-02-15T15:40:24;8.27;;;7.57;;
14592;SDS011;7383;52.354;9.756;2023-02-15T15:43:22;8.70;;;7.93;;
14592;SDS011;7383;52.354;9.756;2023-02-15T15:46:08;9.30;;;8.50;;
14592;SDS011;7383;52.354;9.756;2023-02-15T15:48:41;8.32;;;7.55;;
14592;SDS011;7383;52.354;9.756;2023-02-15T15:51:10;9.07;;;8.18;;
14592;SDS011;7383;52.354;9.756;2023-02-15T15:53:44;9.25;;;8.45;;
14592;SDS011;7383;52.354;9.756;2023-02-15T15:56:24;9.48;;;8.57;;
14592;SDS011;7383;52.354;9.756;2023-02-15T15:58:56;9.15;;;8.27;;